DLH7MH EHAM-ENTC
Flight info
| Callsign | DLH7MH |
|---|---|
| Flight time | N/A |
| Altitude | 34000 |
| Route | BERGI M90 LONAM DCT LARGA/N0447F350 DCT PENUN DCT BEDVI DCT ODNOS DCT BARVI |
| Aircraft | A321/M-SDE3FGHIRWY/LB1 |
Departure
| Time | 2026-05-04 06:59 |
|---|---|
| Airport | Amsterdam Airport Schiphol (EHAM) |
Arrival
| Time | N/A |
|---|---|
| Airport | Tromsø Airport (ENTC) |
| Time | Latitude | Longitude | Altitude | Speed | Heading |
|---|---|---|---|---|---|
| 2026-05-04 06:05 | 52.30989 | 4.77356 | -2 ft | 0 kts | 184° |
| 2026-05-04 06:51 | 52.30990 | 4.77356 | -2 ft | 2 kts | 184° |
| 2026-05-04 06:51 | 52.31015 | 4.77359 | -2 ft | 4 kts | 182° |
| 2026-05-04 06:51 | 52.31042 | 4.77359 | -2 ft | 4 kts | 175° |
| 2026-05-04 06:51 | 52.31067 | 4.77351 | -2 ft | 4 kts | 144° |
| 2026-05-04 06:52 | 52.31077 | 4.77333 | -2 ft | 0 kts | 92° |
| 2026-05-04 06:54 | 52.31076 | 4.77342 | -2 ft | 3 kts | 91° |
| 2026-05-04 06:54 | 52.31076 | 4.77415 | -2 ft | 10 kts | 88° |
| 2026-05-04 06:54 | 52.31132 | 4.77505 | -2 ft | 13 kts | 26° |
| 2026-05-04 06:54 | 52.31175 | 4.77618 | -3 ft | 11 kts | 46° |
| 2026-05-04 06:55 | 52.31241 | 4.77641 | -3 ft | 10 kts | 2° |
| 2026-05-04 06:55 | 52.31319 | 4.77648 | -2 ft | 13 kts | 4° |
| 2026-05-04 06:55 | 52.31417 | 4.77647 | -2 ft | 17 kts | 345° |
| 2026-05-04 06:55 | 52.31522 | 4.77545 | -2 ft | 18 kts | 315° |
| 2026-05-04 06:56 | 52.31628 | 4.77510 | -3 ft | 16 kts | 12° |
| 2026-05-04 06:57 | 52.32072 | 4.77819 | -7 ft | 1 kts | 42° |
| 2026-05-04 06:58 | 52.32092 | 4.77849 | -7 ft | 8 kts | 42° |
| 2026-05-04 06:58 | 52.32124 | 4.77942 | -6 ft | 12 kts | 90° |
| 2026-05-04 06:58 | 52.32042 | 4.78009 | -9 ft | 19 kts | 185° |
| 2026-05-04 06:58 | 52.31845 | 4.77991 | -4 ft | 53 kts | 182° |
| 2026-05-04 06:59 | 52.31247 | 4.77937 | -1 ft | 117 kts | 184° |
| 2026-05-04 06:59 | 52.30252 | 4.77846 | 3 ft | 167 kts | 184° |
| 2026-05-04 06:59 | 52.29072 | 4.77708 | 585 ft | 167 kts | 184° |
| 2026-05-04 06:59 | 52.27937 | 4.77594 | 1368 ft | 160 kts | 174° |
| 2026-05-04 07:01 | 52.19606 | 4.74772 | 3694 ft | 260 kts | 271° |
| 2026-05-04 07:01 | 52.20100 | 4.71960 | 4360 ft | 263 kts | 304° |
| 2026-05-04 07:02 | 52.21454 | 4.70031 | 5011 ft | 267 kts | 335° |
| 2026-05-04 07:02 | 52.23238 | 4.69005 | 5699 ft | 270 kts | 341° |
| 2026-05-04 07:02 | 52.25007 | 4.68084 | 6354 ft | 272 kts | 341° |
| 2026-05-04 07:02 | 52.26820 | 4.67149 | 6998 ft | 275 kts | 341° |
| 2026-05-04 07:03 | 52.28653 | 4.66197 | 7634 ft | 278 kts | 340° |
| 2026-05-04 07:03 | 52.30508 | 4.65227 | 8267 ft | 281 kts | 340° |
| 2026-05-04 07:03 | 52.32374 | 4.64244 | 8906 ft | 284 kts | 340° |
| 2026-05-04 07:03 | 52.34261 | 4.63242 | 9549 ft | 287 kts | 339° |
| 2026-05-04 07:04 | 52.36173 | 4.62225 | 10130 ft | 291 kts | 339° |
| 2026-05-04 07:04 | 52.38165 | 4.61158 | 10280 ft | 312 kts | 339° |
| 2026-05-04 07:04 | 52.40291 | 4.60016 | 10410 ft | 331 kts | 339° |
| 2026-05-04 07:04 | 52.42526 | 4.58821 | 10671 ft | 343 kts | 339° |
| 2026-05-04 07:05 | 52.44814 | 4.57601 | 11178 ft | 348 kts | 339° |
| 2026-05-04 07:05 | 52.47130 | 4.56369 | 11730 ft | 351 kts | 339° |
| 2026-05-04 07:05 | 52.49461 | 4.55130 | 12280 ft | 354 kts | 339° |